sensor_id;sensor_type;location;lat;lon;timestamp;P1;durP1;ratioP1;P2;durP2;ratioP2
80981;SDS011;70440;53.064;8.926;2023-07-31T00:00:27;0.20;;;0.20;;
80981;SDS011;70440;53.064;8.926;2023-07-31T00:02:52;0.20;;;0.20;;
80981;SDS011;70440;53.064;8.926;2023-07-31T00:05:17;0.20;;;0.17;;
80981;SDS011;70440;53.064;8.926;2023-07-31T00:07:43;0.68;;;0.43;;
80981;SDS011;70440;53.064;8.926;2023-07-31T00:10:11;1.00;;;0.82;;
80981;SDS011;70440;53.064;8.926;2023-07-31T00:12:42;1.05;;;0.25;;
80981;SDS011;70440;53.064;8.926;2023-07-31T00:15:08;0.40;;;0.20;;
80981;SDS011;70440;53.064;8.926;2023-07-31T00:17:34;0.75;;;0.25;;
80981;SDS011;70440;53.064;8.926;2023-07-31T00:20:02;0.20;;;0.20;;
80981;SDS011;70440;53.064;8.926;2023-07-31T00:22:33;0.28;;;0.20;;
80981;SDS011;70440;53.064;8.926;2023-07-31T00:25:02;0.70;;;0.30;;
80981;SDS011;70440;53.064;8.926;2023-07-31T00:27:27;0.22;;;0.22;;
80981;SDS011;70440;53.064;8.926;2023-07-31T00:29:56;0.90;;;0.50;;
80981;SDS011;70440;53.064;8.926;2023-07-31T00:32:21;0.30;;;0.22;;
80981;SDS011;70440;53.064;8.926;2023-07-31T00:34:46;0.45;;;0.30;;
80981;SDS011;70440;53.064;8.926;2023-07-31T00:37:12;0.40;;;0.20;;
80981;SDS011;70440;53.064;8.926;2023-07-31T00:39:37;0.22;;;0.20;;
80981;SDS011;70440;53.064;8.926;2023-07-31T00:42:02;0.32;;;0.20;;
80981;SDS011;70440;53.064;8.926;2023-07-31T00:44:28;0.57;;;0.30;;
80981;SDS011;70440;53.064;8.926;2023-07-31T00:46:53;0.65;;;0.30;;
80981;SDS011;70440;53.064;8.926;2023-07-31T00:49:20;0.20;;;0.20;;
80981;SDS011;70440;53.064;8.926;2023-07-31T00:51:45;0.17;;;0.17;;
80981;SDS011;70440;53.064;8.926;2023-07-31T00:54:14;0.65;;;0.30;;
80981;SDS011;70440;53.064;8.926;2023-07-31T00:56:39;0.52;;;0.30;;
80981;SDS011;70440;53.064;8.926;2023-07-31T00:59:06;0.30;;;0.30;;
80981;SDS011;70440;53.064;8.926;2023-07-31T01:01:34;0.47;;;0.20;;
80981;SDS011;70440;53.064;8.926;2023-07-31T01:04:05;0.25;;;0.20;;
80981;SDS011;70440;53.064;8.926;2023-07-31T01:11:52;0.10;;;0.10;;
80981;SDS011;70440;53.064;8.926;2023-07-31T01:14:18;0.40;;;0.28;;
80981;SDS011;70440;53.064;8.926;2023-07-31T01:16:43;0.38;;;0.13;;
80981;SDS011;70440;53.064;8.926;2023-07-31T01:19:09;0.10;;;0.10;;
80981;SDS011;70440;53.064;8.926;2023-07-31T01:26:36;0.20;;;0.20;;
80981;SDS011;70440;53.064;8.926;2023-07-31T01:29:24;0.20;;;0.15;;
80981;SDS011;70440;53.064;8.926;2023-07-31T01:31:55;0.30;;;0.30;;
80981;SDS011;70440;53.064;8.926;2023-07-31T01:34:21;1.15;;;0.25;;
80981;SDS011;70440;53.064;8.926;2023-07-31T01:36:47;0.20;;;0.15;;
80981;SDS011;70440;53.064;8.926;2023-07-31T01:39:13;0.10;;;0.10;;
80981;SDS011;70440;53.064;8.926;2023-07-31T01:41:40;1.00;;;0.50;;
80981;SDS011;70440;53.064;8.926;2023-07-31T01:44:11;0.45;;;0.15;;
80981;SDS011;70440;53.064;8.926;2023-07-31T01:46:37;0.25;;;0.15;;
80981;SDS011;70440;53.064;8.926;2023-07-31T01:49:02;0.15;;;0.15;;
80981;SDS011;70440;53.064;8.926;2023-07-31T01:51:33;0.20;;;0.20;;
80981;SDS011;70440;53.064;8.926;2023-07-31T01:54:02;0.10;;;0.10;;
80981;SDS011;70440;53.064;8.926;2023-07-31T01:56:27;0.30;;;0.30;;
80981;SDS011;70440;53.064;8.926;2023-07-31T01:58:53;0.10;;;0.10;;
80981;SDS011;70440;53.064;8.926;2023-07-31T02:01:27;0.20;;;0.20;;
80981;SDS011;70440;53.064;8.926;2023-07-31T02:03:59;0.30;;;0.30;;
80981;SDS011;70440;53.064;8.926;2023-07-31T02:06:24;1.40;;;0.30;;
80981;SDS011;70440;53.064;8.926;2023-07-31T02:08:55;0.10;;;0.10;;
80981;SDS011;70440;53.064;8.926;2023-07-31T02:11:33;0.32;;;0.20;;
80981;SDS011;70440;53.064;8.926;2023-07-31T02:13:58;0.40;;;0.28;;
80981;SDS011;70440;53.064;8.926;2023-07-31T02:16:27;0.13;;;0.13;;
80981;SDS011;70440;53.064;8.926;2023-07-31T02:18:52;1.10;;;0.20;;
80981;SDS011;70440;53.064;8.926;2023-07-31T02:21:26;0.50;;;0.22;;
80981;SDS011;70440;53.064;8.926;2023-07-31T02:23:55;0.28;;;0.20;;
80981;SDS011;70440;53.064;8.926;2023-07-31T02:26:20;0.10;;;0.10;;
80981;SDS011;70440;53.064;8.926;2023-07-31T02:28:51;0.30;;;0.30;;
80981;SDS011;70440;53.064;8.926;2023-07-31T02:31:17;1.20;;;0.20;;
80981;SDS011;70440;53.064;8.926;2023-07-31T02:33:48;0.30;;;0.20;;
80981;SDS011;70440;53.064;8.926;2023-07-31T02:36:29;0.22;;;0.20;;
80981;SDS011;70440;53.064;8.926;2023-07-31T02:38:57;0.30;;;0.20;;
80981;SDS011;70440;53.064;8.926;2023-07-31T02:41:35;0.10;;;0.10;;
80981;SDS011;70440;53.064;8.926;2023-07-31T02:44:16;0.10;;;0.10;;
80981;SDS011;70440;53.064;8.926;2023-07-31T02:46:44;0.30;;;0.30;;
80981;SDS011;70440;53.064;8.926;2023-07-31T02:49:24;1.35;;;0.30;;
80981;SDS011;70440;53.064;8.926;2023-07-31T02:51:53;0.10;;;0.10;;
80981;SDS011;70440;53.064;8.926;2023-07-31T02:54:24;0.35;;;0.30;;
80981;SDS011;70440;53.064;8.926;2023-07-31T02:56:49;0.13;;;0.13;;
80981;SDS011;70440;53.064;8.926;2023-07-31T02:59:18;0.22;;;0.22;;
80981;SDS011;70440;53.064;8.926;2023-07-31T03:01:52;0.10;;;0.10;;
80981;SDS011;70440;53.064;8.926;2023-07-31T03:04:18;0.20;;;0.20;;
80981;SDS011;70440;53.064;8.926;2023-07-31T03:06:49;0.32;;;0.20;;
80981;SDS011;70440;53.064;8.926;2023-07-31T03:09:18;0.10;;;0.10;;
80981;SDS011;70440;53.064;8.926;2023-07-31T03:11:49;0.65;;;0.30;;
80981;SDS011;70440;53.064;8.926;2023-07-31T03:14:17;0.20;;;0.20;;
80981;SDS011;70440;53.064;8.926;2023-07-31T03:16:48;0.30;;;0.30;;
80981;SDS011;70440;53.064;8.926;2023-07-31T03:19:17;0.20;;;0.20;;
80981;SDS011;70440;53.064;8.926;2023-07-31T03:21:42;0.20;;;0.17;;
80981;SDS011;70440;53.064;8.926;2023-07-31T03:24:07;0.30;;;0.20;;
80981;SDS011;70440;53.064;8.926;2023-07-31T03:26:36;0.22;;;0.17;;
80981;SDS011;70440;53.064;8.926;2023-07-31T03:29:08;0.45;;;0.38;;
80981;SDS011;70440;53.064;8.926;2023-07-31T03:31:36;0.10;;;0.10;;
80981;SDS011;70440;53.064;8.926;2023-07-31T03:34:02;0.20;;;0.20;;
80981;SDS011;70440;53.064;8.926;2023-07-31T03:36:33;0.15;;;0.15;;
80981;SDS011;70440;53.064;8.926;2023-07-31T03:38:58;0.75;;;0.30;;
80981;SDS011;70440;53.064;8.926;2023-07-31T03:41:24;0.40;;;0.30;;
80981;SDS011;70440;53.064;8.926;2023-07-31T03:43:52;1.02;;;0.20;;
80981;SDS011;70440;53.064;8.926;2023-07-31T03:46:17;0.55;;;0.50;;
80981;SDS011;70440;53.064;8.926;2023-07-31T03:48:43;0.13;;;0.10;;
80981;SDS011;70440;53.064;8.926;2023-07-31T03:51:08;1.05;;;0.75;;
80981;SDS011;70440;53.064;8.926;2023-07-31T03:53:34;1.15;;;0.80;;
80981;SDS011;70440;53.064;8.926;2023-07-31T03:55:59;1.25;;;0.82;;
80981;SDS011;70440;53.064;8.926;2023-07-31T03:58:27;1.10;;;0.50;;
80981;SDS011;70440;53.064;8.926;2023-07-31T04:00:53;0.70;;;0.40;;
80981;SDS011;70440;53.064;8.926;2023-07-31T04:03:18;1.38;;;0.75;;
80981;SDS011;70440;53.064;8.926;2023-07-31T04:05:44;0.60;;;0.30;;
80981;SDS011;70440;53.064;8.926;2023-07-31T04:08:09;0.80;;;0.32;;
80981;SDS011;70440;53.064;8.926;2023-07-31T04:10:35;0.68;;;0.65;;
80981;SDS011;70440;53.064;8.926;2023-07-31T04:13:03;0.28;;;0.28;;
80981;SDS011;70440;53.064;8.926;2023-07-31T04:15:32;0.38;;;0.30;;
80981;SDS011;70440;53.064;8.926;2023-07-31T04:17:57;0.22;;;0.22;;
80981;SDS011;70440;53.064;8.926;2023-07-31T04:20:22;0.17;;;0.10;;
80981;SDS011;70440;53.064;8.926;2023-07-31T04:22:54;0.20;;;0.20;;
80981;SDS011;70440;53.064;8.926;2023-07-31T04:25:19;0.20;;;0.10;;
80981;SDS011;70440;53.064;8.926;2023-07-31T04:27:54;0.30;;;0.20;;
80981;SDS011;70440;53.064;8.926;2023-07-31T04:30:28;0.10;;;0.10;;
80981;SDS011;70440;53.064;8.926;2023-07-31T04:32:54;0.20;;;0.20;;
80981;SDS011;70440;53.064;8.926;2023-07-31T04:35:19;0.47;;;0.20;;
80981;SDS011;70440;53.064;8.926;2023-07-31T04:37:44;0.20;;;0.20;;
80981;SDS011;70440;53.064;8.926;2023-07-31T04:40:16;1.48;;;0.50;;
80981;SDS011;70440;53.064;8.926;2023-07-31T04:42:44;1.23;;;0.57;;
80981;SDS011;70440;53.064;8.926;2023-07-31T04:45:19;0.73;;;0.52;;
80981;SDS011;70440;53.064;8.926;2023-07-31T04:47:44;0.50;;;0.30;;
80981;SDS011;70440;53.064;8.926;2023-07-31T04:50:10;0.30;;;0.30;;
80981;SDS011;70440;53.064;8.926;2023-07-31T04:52:41;0.17;;;0.17;;
80981;SDS011;70440;53.064;8.926;2023-07-31T04:55:07;0.40;;;0.40;;
80981;SDS011;70440;53.064;8.926;2023-07-31T04:57:38;0.13;;;0.13;;
80981;SDS011;70440;53.064;8.926;2023-07-31T05:00:06;0.47;;;0.13;;
80981;SDS011;70440;53.064;8.926;2023-07-31T05:02:35;0.20;;;0.20;;
80981;SDS011;70440;53.064;8.926;2023-07-31T05:05:01;0.10;;;0.10;;
80981;SDS011;70440;53.064;8.926;2023-07-31T05:07:29;0.20;;;0.20;;
80981;SDS011;70440;53.064;8.926;2023-07-31T05:09:57;0.50;;;0.20;;
80981;SDS011;70440;53.064;8.926;2023-07-31T05:12:29;0.20;;;0.20;;
80981;SDS011;70440;53.064;8.926;2023-07-31T05:14:57;0.10;;;0.10;;
80981;SDS011;70440;53.064;8.926;2023-07-31T05:17:23;0.10;;;0.10;;
80981;SDS011;70440;53.064;8.926;2023-07-31T05:19:51;0.20;;;0.10;;
80981;SDS011;70440;53.064;8.926;2023-07-31T05:22:16;0.20;;;0.20;;
80981;SDS011;70440;53.064;8.926;2023-07-31T05:24:44;0.85;;;0.80;;
80981;SDS011;70440;53.064;8.926;2023-07-31T05:27:10;0.20;;;0.17;;
80981;SDS011;70440;53.064;8.926;2023-07-31T05:29:35;0.10;;;0.10;;
80981;SDS011;70440;53.064;8.926;2023-07-31T05:32:04;0.10;;;0.10;;
80981;SDS011;70440;53.064;8.926;2023-07-31T05:34:30;0.10;;;0.10;;
80981;SDS011;70440;53.064;8.926;2023-07-31T05:36:58;0.10;;;0.10;;
80981;SDS011;70440;53.064;8.926;2023-07-31T05:39:23;0.00;;;0.00;;
80981;SDS011;70440;53.064;8.926;2023-07-31T05:41:49;0.10;;;0.10;;
80981;SDS011;70440;53.064;8.926;2023-07-31T05:44:17;0.17;;;0.10;;
80981;SDS011;70440;53.064;8.926;2023-07-31T05:46:42;0.10;;;0.10;;
80981;SDS011;70440;53.064;8.926;2023-07-31T05:49:14;0.20;;;0.13;;
80981;SDS011;70440;53.064;8.926;2023-07-31T05:51:42;0.55;;;0.38;;
80981;SDS011;70440;53.064;8.926;2023-07-31T05:54:14;0.20;;;0.20;;
80981;SDS011;70440;53.064;8.926;2023-07-31T05:56:39;0.20;;;0.20;;
80981;SDS011;70440;53.064;8.926;2023-07-31T05:59:04;0.10;;;0.10;;
80981;SDS011;70440;53.064;8.926;2023-07-31T06:01:30;0.20;;;0.20;;
80981;SDS011;70440;53.064;8.926;2023-07-31T06:03:55;0.40;;;0.30;;
80981;SDS011;70440;53.064;8.926;2023-07-31T06:06:20;0.10;;;0.10;;
80981;SDS011;70440;53.064;8.926;2023-07-31T06:08:46;0.10;;;0.10;;
80981;SDS011;70440;53.064;8.926;2023-07-31T06:11:23;0.00;;;0.00;;
80981;SDS011;70440;53.064;8.926;2023-07-31T06:13:48;0.93;;;0.10;;
80981;SDS011;70440;53.064;8.926;2023-07-31T06:16:15;0.10;;;0.10;;
80981;SDS011;70440;53.064;8.926;2023-07-31T06:18:41;0.20;;;0.20;;
80981;SDS011;70440;53.064;8.926;2023-07-31T06:21:10;0.10;;;0.10;;
80981;SDS011;70440;53.064;8.926;2023-07-31T06:23:39;0.32;;;0.10;;
80981;SDS011;70440;53.064;8.926;2023-07-31T06:26:07;0.20;;;0.20;;
80981;SDS011;70440;53.064;8.926;2023-07-31T06:28:41;0.10;;;0.10;;
80981;SDS011;70440;53.064;8.926;2023-07-31T06:31:07;0.20;;;0.20;;
80981;SDS011;70440;53.064;8.926;2023-07-31T06:33:32;2.63;;;0.20;;
80981;SDS011;70440;53.064;8.926;2023-07-31T06:35:57;0.20;;;0.20;;
80981;SDS011;70440;53.064;8.926;2023-07-31T06:38:25;0.10;;;0.10;;
80981;SDS011;70440;53.064;8.926;2023-07-31T06:40:50;0.00;;;0.00;;
80981;SDS011;70440;53.064;8.926;2023-07-31T06:43:19;0.10;;;0.10;;
80981;SDS011;70440;53.064;8.926;2023-07-31T06:45:44;0.80;;;0.10;;
80981;SDS011;70440;53.064;8.926;2023-07-31T06:48:10;0.13;;;0.10;;
80981;SDS011;70440;53.064;8.926;2023-07-31T06:50:36;0.00;;;0.00;;
80981;SDS011;70440;53.064;8.926;2023-07-31T06:53:02;0.10;;;0.10;;
80981;SDS011;70440;53.064;8.926;2023-07-31T06:55:36;0.00;;;0.00;;
80981;SDS011;70440;53.064;8.926;2023-07-31T06:58:08;0.03;;;0.03;;
80981;SDS011;70440;53.064;8.926;2023-07-31T07:00:33;0.10;;;0.10;;
80981;SDS011;70440;53.064;8.926;2023-07-31T07:03:01;0.45;;;0.10;;
80981;SDS011;70440;53.064;8.926;2023-07-31T07:05:36;0.13;;;0.10;;
80981;SDS011;70440;53.064;8.926;2023-07-31T07:08:04;0.03;;;0.03;;
80981;SDS011;70440;53.064;8.926;2023-07-31T07:10:32;0.10;;;0.10;;
80981;SDS011;70440;53.064;8.926;2023-07-31T07:12:58;0.10;;;0.10;;
80981;SDS011;70440;53.064;8.926;2023-07-31T07:15:29;0.65;;;0.10;;
80981;SDS011;70440;53.064;8.926;2023-07-31T07:17:58;0.00;;;0.00;;
80981;SDS011;70440;53.064;8.926;2023-07-31T07:23:18;0.10;;;0.10;;
80981;SDS011;70440;53.064;8.926;2023-07-31T07:25:44;0.08;;;0.00;;
80981;SDS011;70440;53.064;8.926;2023-07-31T07:28:10;0.10;;;0.10;;
80981;SDS011;70440;53.064;8.926;2023-07-31T07:30:36;0.10;;;0.10;;
80981;SDS011;70440;53.064;8.926;2023-07-31T07:33:04;0.00;;;0.00;;
80981;SDS011;70440;53.064;8.926;2023-07-31T07:35:30;0.00;;;0.00;;
80981;SDS011;70440;53.064;8.926;2023-07-31T07:37:55;0.10;;;0.10;;
80981;SDS011;70440;53.064;8.926;2023-07-31T07:40:21;0.20;;;0.20;;
80981;SDS011;70440;53.064;8.926;2023-07-31T07:42:47;0.20;;;0.20;;
80981;SDS011;70440;53.064;8.926;2023-07-31T07:45:12;0.13;;;0.10;;
80981;SDS011;70440;53.064;8.926;2023-07-31T07:47:44;0.40;;;0.30;;
80981;SDS011;70440;53.064;8.926;2023-07-31T07:50:15;0.25;;;0.25;;
80981;SDS011;70440;53.064;8.926;2023-07-31T07:52:40;0.25;;;0.20;;
80981;SDS011;70440;53.064;8.926;2023-07-31T07:55:06;0.30;;;0.10;;
80981;SDS011;70440;53.064;8.926;2023-07-31T07:57:31;0.38;;;0.38;;
80981;SDS011;70440;53.064;8.926;2023-07-31T07:59:56;0.52;;;0.28;;
80981;SDS011;70440;53.064;8.926;2023-07-31T08:02:22;0.65;;;0.20;;
80981;SDS011;70440;53.064;8.926;2023-07-31T08:04:47;0.55;;;0.20;;
80981;SDS011;70440;53.064;8.926;2023-07-31T08:07:13;0.20;;;0.20;;
80981;SDS011;70440;53.064;8.926;2023-07-31T08:09:48;0.65;;;0.60;;
80981;SDS011;70440;53.064;8.926;2023-07-31T08:12:22;0.88;;;0.57;;
80981;SDS011;70440;53.064;8.926;2023-07-31T08:14:57;1.15;;;0.85;;
80981;SDS011;70440;53.064;8.926;2023-07-31T08:17:22;0.73;;;0.60;;
80981;SDS011;70440;53.064;8.926;2023-07-31T08:19:51;3.10;;;0.93;;
80981;SDS011;70440;53.064;8.926;2023-07-31T08:22:22;0.93;;;0.70;;
80981;SDS011;70440;53.064;8.926;2023-07-31T08:24:48;0.77;;;0.70;;
80981;SDS011;70440;53.064;8.926;2023-07-31T08:27:16;1.27;;;0.70;;
80981;SDS011;70440;53.064;8.926;2023-07-31T08:29:44;0.65;;;0.60;;
80981;SDS011;70440;53.064;8.926;2023-07-31T08:32:09;0.77;;;0.40;;
80981;SDS011;70440;53.064;8.926;2023-07-31T08:34:41;2.00;;;0.68;;
80981;SDS011;70440;53.064;8.926;2023-07-31T08:37:06;1.10;;;0.73;;
80981;SDS011;70440;53.064;8.926;2023-07-31T08:39:38;1.45;;;0.82;;
80981;SDS011;70440;53.064;8.926;2023-07-31T08:42:07;1.20;;;0.77;;
80981;SDS011;70440;53.064;8.926;2023-07-31T08:44:33;1.10;;;0.82;;
80981;SDS011;70440;53.064;8.926;2023-07-31T08:46:59;1.85;;;0.93;;
80981;SDS011;70440;53.064;8.926;2023-07-31T08:49:27;0.93;;;0.80;;
80981;SDS011;70440;53.064;8.926;2023-07-31T08:51:57;1.25;;;0.80;;
80981;SDS011;70440;53.064;8.926;2023-07-31T08:54:29;1.27;;;0.90;;
80981;SDS011;70440;53.064;8.926;2023-07-31T08:56:58;1.05;;;0.60;;
80981;SDS011;70440;53.064;8.926;2023-07-31T08:59:29;2.03;;;0.93;;
80981;SDS011;70440;53.064;8.926;2023-07-31T09:02:00;2.00;;;0.55;;
80981;SDS011;70440;53.064;8.926;2023-07-31T09:04:31;0.60;;;0.40;;
80981;SDS011;70440;53.064;8.926;2023-07-31T09:07:01;1.65;;;0.75;;
80981;SDS011;70440;53.064;8.926;2023-07-31T09:09:31;2.72;;;0.88;;
80981;SDS011;70440;53.064;8.926;2023-07-31T09:12:03;1.27;;;0.70;;
80981;SDS011;70440;53.064;8.926;2023-07-31T09:14:29;0.85;;;0.60;;
80981;SDS011;70440;53.064;8.926;2023-07-31T09:17:03;0.55;;;0.50;;
80981;SDS011;70440;53.064;8.926;2023-07-31T09:19:32;1.77;;;0.60;;
80981;SDS011;70440;53.064;8.926;2023-07-31T09:22:08;1.02;;;0.70;;
80981;SDS011;70440;53.064;8.926;2023-07-31T09:24:36;1.02;;;0.80;;
80981;SDS011;70440;53.064;8.926;2023-07-31T09:27:05;5.88;;;1.23;;
80981;SDS011;70440;53.064;8.926;2023-07-31T09:32:05;0.40;;;0.40;;
80981;SDS011;70440;53.064;8.926;2023-07-31T09:34:40;0.95;;;0.82;;
80981;SDS011;70440;53.064;8.926;2023-07-31T09:37:06;0.90;;;0.50;;
80981;SDS011;70440;53.064;8.926;2023-07-31T09:39:31;1.70;;;0.60;;
80981;SDS011;70440;53.064;8.926;2023-07-31T09:41:57;0.45;;;0.30;;
80981;SDS011;70440;53.064;8.926;2023-07-31T09:44:36;0.57;;;0.55;;
80981;SDS011;70440;53.064;8.926;2023-07-31T09:49:28;0.47;;;0.47;;
80981;SDS011;70440;53.064;8.926;2023-07-31T09:51:54;0.43;;;0.43;;
80981;SDS011;70440;53.064;8.926;2023-07-31T09:54:25;0.30;;;0.22;;
80981;SDS011;70440;53.064;8.926;2023-07-31T09:56:51;0.22;;;0.22;;
80981;SDS011;70440;53.064;8.926;2023-07-31T09:59:19;0.45;;;0.35;;
80981;SDS011;70440;53.064;8.926;2023-07-31T10:01:45;0.60;;;0.50;;
80981;SDS011;70440;53.064;8.926;2023-07-31T10:04:11;0.90;;;0.82;;
80981;SDS011;70440;53.064;8.926;2023-07-31T10:06:38;1.10;;;0.68;;
80981;SDS011;70440;53.064;8.926;2023-07-31T10:09:08;0.85;;;0.40;;
80981;SDS011;70440;53.064;8.926;2023-07-31T10:11:42;0.47;;;0.35;;
80981;SDS011;70440;53.064;8.926;2023-07-31T10:14:15;0.57;;;0.35;;
80981;SDS011;70440;53.064;8.926;2023-07-31T10:16:50;2.17;;;0.47;;
80981;SDS011;70440;53.064;8.926;2023-07-31T10:19:17;0.35;;;0.35;;
80981;SDS011;70440;53.064;8.926;2023-07-31T10:21:43;0.10;;;0.10;;
80981;SDS011;70440;53.064;8.926;2023-07-31T10:24:14;0.17;;;0.15;;
80981;SDS011;70440;53.064;8.926;2023-07-31T10:26:41;0.47;;;0.30;;
80981;SDS011;70440;53.064;8.926;2023-07-31T10:29:10;0.32;;;0.30;;
80981;SDS011;70440;53.064;8.926;2023-07-31T10:31:38;0.28;;;0.22;;
80981;SDS011;70440;53.064;8.926;2023-07-31T10:34:03;0.22;;;0.22;;
80981;SDS011;70440;53.064;8.926;2023-07-31T10:36:29;1.48;;;0.30;;
80981;SDS011;70440;53.064;8.926;2023-07-31T10:38:57;1.13;;;0.30;;
80981;SDS011;70440;53.064;8.926;2023-07-31T10:41:29;0.50;;;0.25;;
80981;SDS011;70440;53.064;8.926;2023-07-31T10:43:59;0.10;;;0.10;;
80981;SDS011;70440;53.064;8.926;2023-07-31T10:46:25;0.35;;;0.35;;
80981;SDS011;70440;53.064;8.926;2023-07-31T10:48:57;0.20;;;0.20;;
80981;SDS011;70440;53.064;8.926;2023-07-31T10:51:23;0.38;;;0.20;;
80981;SDS011;70440;53.064;8.926;2023-07-31T10:53:49;0.10;;;0.10;;
80981;SDS011;70440;53.064;8.926;2023-07-31T10:56:16;1.17;;;0.20;;
80981;SDS011;70440;53.064;8.926;2023-07-31T10:58:47;0.10;;;0.10;;
80981;SDS011;70440;53.064;8.926;2023-07-31T11:01:25;0.20;;;0.10;;
80981;SDS011;70440;53.064;8.926;2023-07-31T11:07:23;0.03;;;0.03;;
80981;SDS011;70440;53.064;8.926;2023-07-31T11:09:48;0.20;;;0.20;;
80981;SDS011;70440;53.064;8.926;2023-07-31T11:12:13;0.10;;;0.10;;
80981;SDS011;70440;53.064;8.926;2023-07-31T11:14:39;0.10;;;0.10;;
80981;SDS011;70440;53.064;8.926;2023-07-31T11:17:07;0.10;;;0.05;;
80981;SDS011;70440;53.064;8.926;2023-07-31T11:19:35;0.10;;;0.10;;
80981;SDS011;70440;53.064;8.926;2023-07-31T11:22:06;0.10;;;0.10;;
80981;SDS011;70440;53.064;8.926;2023-07-31T11:24:38;0.05;;;0.05;;
80981;SDS011;70440;53.064;8.926;2023-07-31T11:27:07;0.10;;;0.10;;
80981;SDS011;70440;53.064;8.926;2023-07-31T11:29:32;0.17;;;0.10;;
80981;SDS011;70440;53.064;8.926;2023-07-31T11:31:58;0.30;;;0.10;;
80981;SDS011;70440;53.064;8.926;2023-07-31T11:34:26;0.45;;;0.13;;
80981;SDS011;70440;53.064;8.926;2023-07-31T11:36:55;0.10;;;0.10;;
80981;SDS011;70440;53.064;8.926;2023-07-31T11:39:23;0.00;;;0.00;;
80981;SDS011;70440;53.064;8.926;2023-07-31T11:41:49;0.10;;;0.10;;
80981;SDS011;70440;53.064;8.926;2023-07-31T11:44:17;0.05;;;0.05;;
80981;SDS011;70440;53.064;8.926;2023-07-31T11:46:45;0.03;;;0.03;;
80981;SDS011;70440;53.064;8.926;2023-07-31T11:49:20;0.00;;;0.00;;
80981;SDS011;70440;53.064;8.926;2023-07-31T11:51:52;0.08;;;0.08;;
80981;SDS011;70440;53.064;8.926;2023-07-31T11:54:18;0.10;;;0.10;;
80981;SDS011;70440;53.064;8.926;2023-07-31T11:56:43;0.10;;;0.10;;
80981;SDS011;70440;53.064;8.926;2023-07-31T11:59:11;0.10;;;0.10;;
80981;SDS011;70440;53.064;8.926;2023-07-31T12:01:37;0.00;;;0.00;;
80981;SDS011;70440;53.064;8.926;2023-07-31T12:04:06;0.28;;;0.10;;
80981;SDS011;70440;53.064;8.926;2023-07-31T12:06:32;0.15;;;0.03;;
80981;SDS011;70440;53.064;8.926;2023-07-31T12:09:04;0.10;;;0.10;;
80981;SDS011;70440;53.064;8.926;2023-07-31T12:11:30;0.05;;;0.00;;
80981;SDS011;70440;53.064;8.926;2023-07-31T12:13:56;0.10;;;0.10;;
80981;SDS011;70440;53.064;8.926;2023-07-31T12:16:26;0.10;;;0.10;;
80981;SDS011;70440;53.064;8.926;2023-07-31T12:18:51;0.00;;;0.00;;
80981;SDS011;70440;53.064;8.926;2023-07-31T12:21:17;0.10;;;0.10;;
80981;SDS011;70440;53.064;8.926;2023-07-31T12:23:43;0.10;;;0.10;;
80981;SDS011;70440;53.064;8.926;2023-07-31T12:26:13;0.00;;;0.00;;
80981;SDS011;70440;53.064;8.926;2023-07-31T12:28:46;0.00;;;0.00;;
80981;SDS011;70440;53.064;8.926;2023-07-31T12:31:14;0.20;;;0.20;;
80981;SDS011;70440;53.064;8.926;2023-07-31T12:33:45;0.00;;;0.00;;
80981;SDS011;70440;53.064;8.926;2023-07-31T12:36:12;0.10;;;0.10;;
80981;SDS011;70440;53.064;8.926;2023-07-31T12:38:38;0.28;;;0.10;;
80981;SDS011;70440;53.064;8.926;2023-07-31T12:41:04;0.00;;;0.00;;
80981;SDS011;70440;53.064;8.926;2023-07-31T12:43:31;0.00;;;0.00;;
80981;SDS011;70440;53.064;8.926;2023-07-31T12:45:59;0.00;;;0.00;;
80981;SDS011;70440;53.064;8.926;2023-07-31T12:48:25;0.10;;;0.10;;
80981;SDS011;70440;53.064;8.926;2023-07-31T12:50:50;0.00;;;0.00;;
80981;SDS011;70440;53.064;8.926;2023-07-31T12:53:18;0.10;;;0.10;;
80981;SDS011;70440;53.064;8.926;2023-07-31T12:55:50;0.10;;;0.10;;
80981;SDS011;70440;53.064;8.926;2023-07-31T12:58:15;0.10;;;0.10;;
80981;SDS011;70440;53.064;8.926;2023-07-31T13:00:41;1.10;;;0.20;;
80981;SDS011;70440;53.064;8.926;2023-07-31T13:03:10;0.08;;;0.03;;
80981;SDS011;70440;53.064;8.926;2023-07-31T13:05:39;0.10;;;0.10;;
80981;SDS011;70440;53.064;8.926;2023-07-31T13:08:10;0.17;;;0.10;;
80981;SDS011;70440;53.064;8.926;2023-07-31T13:10:36;0.30;;;0.10;;
80981;SDS011;70440;53.064;8.926;2023-07-31T13:13:05;0.10;;;0.10;;
80981;SDS011;70440;53.064;8.926;2023-07-31T13:15:33;0.20;;;0.20;;
80981;SDS011;70440;53.064;8.926;2023-07-31T13:17:58;0.15;;;0.15;;
80981;SDS011;70440;53.064;8.926;2023-07-31T13:20:24;0.10;;;0.10;;
80981;SDS011;70440;53.064;8.926;2023-07-31T13:22:59;0.10;;;0.10;;
80981;SDS011;70440;53.064;8.926;2023-07-31T13:25:24;0.20;;;0.20;;
80981;SDS011;70440;53.064;8.926;2023-07-31T13:27:53;0.15;;;0.10;;
80981;SDS011;70440;53.064;8.926;2023-07-31T13:30:18;0.20;;;0.20;;
80981;SDS011;70440;53.064;8.926;2023-07-31T13:32:43;0.00;;;0.00;;
80981;SDS011;70440;53.064;8.926;2023-07-31T13:35:12;0.05;;;0.05;;
80981;SDS011;70440;53.064;8.926;2023-07-31T13:37:40;0.10;;;0.10;;
80981;SDS011;70440;53.064;8.926;2023-07-31T13:40:06;0.10;;;0.10;;
80981;SDS011;70440;53.064;8.926;2023-07-31T13:42:34;0.32;;;0.10;;
80981;SDS011;70440;53.064;8.926;2023-07-31T13:45:00;0.20;;;0.20;;
80981;SDS011;70440;53.064;8.926;2023-07-31T13:47:28;0.20;;;0.20;;
80981;SDS011;70440;53.064;8.926;2023-07-31T13:49:54;0.75;;;0.40;;
80981;SDS011;70440;53.064;8.926;2023-07-31T13:52:19;0.10;;;0.10;;
80981;SDS011;70440;53.064;8.926;2023-07-31T13:54:47;0.45;;;0.40;;
80981;SDS011;70440;53.064;8.926;2023-07-31T13:57:13;0.30;;;0.30;;
80981;SDS011;70440;53.064;8.926;2023-07-31T13:59:44;0.30;;;0.30;;
80981;SDS011;70440;53.064;8.926;2023-07-31T14:02:09;0.35;;;0.20;;
80981;SDS011;70440;53.064;8.926;2023-07-31T14:04:35;0.30;;;0.20;;
80981;SDS011;70440;53.064;8.926;2023-07-31T14:07:06;0.20;;;0.20;;
80981;SDS011;70440;53.064;8.926;2023-07-31T14:09:32;0.20;;;0.20;;
80981;SDS011;70440;53.064;8.926;2023-07-31T14:12:06;0.20;;;0.20;;
80981;SDS011;70440;53.064;8.926;2023-07-31T14:14:32;0.45;;;0.30;;
80981;SDS011;70440;53.064;8.926;2023-07-31T14:17:08;0.20;;;0.20;;
80981;SDS011;70440;53.064;8.926;2023-07-31T14:19:33;0.40;;;0.40;;
80981;SDS011;70440;53.064;8.926;2023-07-31T14:22:01;0.28;;;0.28;;
80981;SDS011;70440;53.064;8.926;2023-07-31T14:24:26;0.65;;;0.40;;
80981;SDS011;70440;53.064;8.926;2023-07-31T14:26:52;0.40;;;0.40;;
80981;SDS011;70440;53.064;8.926;2023-07-31T14:29:20;0.40;;;0.40;;
80981;SDS011;70440;53.064;8.926;2023-07-31T14:31:49;0.50;;;0.47;;
80981;SDS011;70440;53.064;8.926;2023-07-31T14:34:17;0.55;;;0.45;;
80981;SDS011;70440;53.064;8.926;2023-07-31T14:36:42;0.40;;;0.40;;
80981;SDS011;70440;53.064;8.926;2023-07-31T14:39:09;1.10;;;0.70;;
80981;SDS011;70440;53.064;8.926;2023-07-31T14:41:37;0.75;;;0.30;;
80981;SDS011;70440;53.064;8.926;2023-07-31T14:44:03;0.43;;;0.43;;
80981;SDS011;70440;53.064;8.926;2023-07-31T14:46:28;0.40;;;0.40;;
80981;SDS011;70440;53.064;8.926;2023-07-31T14:48:53;0.35;;;0.35;;
80981;SDS011;70440;53.064;8.926;2023-07-31T14:51:19;0.88;;;0.60;;
80981;SDS011;70440;53.064;8.926;2023-07-31T14:53:50;0.68;;;0.68;;
80981;SDS011;70440;53.064;8.926;2023-07-31T14:56:16;0.40;;;0.40;;
80981;SDS011;70440;53.064;8.926;2023-07-31T14:58:41;0.75;;;0.70;;
80981;SDS011;70440;53.064;8.926;2023-07-31T15:01:06;1.13;;;1.02;;
80981;SDS011;70440;53.064;8.926;2023-07-31T15:03:32;0.75;;;0.60;;
80981;SDS011;70440;53.064;8.926;2023-07-31T15:05:57;0.68;;;0.50;;
80981;SDS011;70440;53.064;8.926;2023-07-31T15:08:23;0.30;;;0.30;;
80981;SDS011;70440;53.064;8.926;2023-07-31T15:10:48;0.60;;;0.60;;
80981;SDS011;70440;53.064;8.926;2023-07-31T15:13:26;1.02;;;0.73;;